createdAt,value
2023-01-26T00:00:46.256Z,12.00
2023-01-26T00:03:12.488Z,11.27
2023-01-26T00:05:38.787Z,11.97
2023-01-26T00:08:05.357Z,11.83
2023-01-26T00:10:31.577Z,11.87
2023-01-26T00:12:57.806Z,11.50
2023-01-26T00:15:24.012Z,12.00
2023-01-26T00:17:51.537Z,11.70
2023-01-26T00:20:18.079Z,10.63
2023-01-26T00:22:44.428Z,12.73
2023-01-26T00:25:10.689Z,10.87
2023-01-26T00:27:36.917Z,11.47
2023-01-26T00:30:03.464Z,11.07
2023-01-26T00:32:29.680Z,11.43
2023-01-26T00:34:55.899Z,12.30
2023-01-26T00:37:22.119Z,12.40
2023-01-26T00:39:48.367Z,12.33
2023-01-26T00:42:15.797Z,12.47
2023-01-26T00:44:42.602Z,11.73
2023-01-26T00:47:10.044Z,12.20
2023-01-26T00:49:36.308Z,12.93
2023-01-26T00:52:02.887Z,12.87
2023-01-26T00:54:29.115Z,13.40
2023-01-26T00:56:55.410Z,12.50
2023-01-26T00:59:21.889Z,13.43
2023-01-26T01:01:48.640Z,12.63
2023-01-26T01:04:15.543Z,12.33
2023-01-26T01:06:41.876Z,12.40
2023-01-26T01:09:08.234Z,13.50
2023-01-26T01:11:35.622Z,13.83
2023-01-26T01:14:02.296Z,13.33
2023-01-26T01:16:28.672Z,14.23
2023-01-26T01:18:58.044Z,13.20
2023-01-26T01:21:24.509Z,14.47
2023-01-26T01:23:50.847Z,13.40
2023-01-26T01:26:17.412Z,12.97
2023-01-26T01:28:44.135Z,15.03
2023-01-26T01:31:11.618Z,14.17
2023-01-26T01:33:38.298Z,13.37
2023-01-26T01:36:06.143Z,13.87
2023-01-26T01:38:32.695Z,13.67
2023-01-26T01:40:59.204Z,13.90
2023-01-26T01:43:26.074Z,13.37
2023-01-26T01:45:52.929Z,14.03
2023-01-26T01:48:24.977Z,12.97
2023-01-26T01:50:55.945Z,13.30
2023-01-26T01:53:27.216Z,13.40
2023-01-26T01:55:55.680Z,12.60
2023-01-26T01:58:22.031Z,12.90
2023-01-26T02:00:48.263Z,14.00
2023-01-26T02:03:15.145Z,14.47
2023-01-26T02:05:48.697Z,12.50
2023-01-26T02:08:16.143Z,11.87
2023-01-26T02:10:44.886Z,11.80
2023-01-26T02:13:11.756Z,12.30
2023-01-26T02:15:38.272Z,12.37
2023-01-26T02:18:05.145Z,13.53
2023-01-26T02:20:50.797Z,13.40
2023-01-26T02:23:23.081Z,13.60
2023-01-26T02:25:49.297Z,14.47
2023-01-26T02:28:16.042Z,12.60
2023-01-26T02:30:42.267Z,14.23
2023-01-26T02:33:14.340Z,13.17
2023-01-26T02:35:40.548Z,13.83
2023-01-26T02:38:08.040Z,14.03
2023-01-26T02:40:43.392Z,14.13
2023-01-26T02:43:09.840Z,14.43
2023-01-26T02:45:36.250Z,14.63
2023-01-26T02:48:06.283Z,13.67
2023-01-26T02:50:32.531Z,14.40
2023-01-26T02:52:59.088Z,13.87
2023-01-26T02:55:26.747Z,14.60
2023-01-26T02:57:57.671Z,14.23
2023-01-26T03:00:25.079Z,13.10
2023-01-26T03:02:52.533Z,13.17
2023-01-26T03:05:19.096Z,14.80
2023-01-26T03:07:45.513Z,14.00
2023-01-26T03:10:12.752Z,13.23
2023-01-26T03:12:39.320Z,12.87
2023-01-26T03:15:24.340Z,12.67
2023-01-26T03:17:50.606Z,12.87
2023-01-26T03:20:35.317Z,12.63
2023-01-26T03:23:20.073Z,12.97
2023-01-26T03:26:05.444Z,11.50
2023-01-26T03:28:31.699Z,11.80
2023-01-26T03:30:58.197Z,11.67
2023-01-26T03:33:24.457Z,12.03
2023-01-26T03:35:52.269Z,12.63
2023-01-26T03:38:18.616Z,12.00
2023-01-26T03:41:03.423Z,12.17
2023-01-26T03:43:48.225Z,12.47
2023-01-26T03:46:33.539Z,13.33
2023-01-26T03:49:18.751Z,12.43
2023-01-26T03:52:03.523Z,12.37
2023-01-26T03:54:48.293Z,11.27
2023-01-26T03:57:14.499Z,11.60
2023-01-26T03:59:40.988Z,11.97
2023-01-26T04:02:27.182Z,10.83
2023-01-26T04:05:12.095Z,10.47
2023-01-26T04:07:56.894Z,11.30
2023-01-26T04:10:23.426Z,9.93
2023-01-26T04:13:08.392Z,11.20
2023-01-26T04:15:54.916Z,10.33
2023-01-26T04:18:40.277Z,11.37
2023-01-26T04:21:25.685Z,10.60
2023-01-26T04:23:58.562Z,11.43
2023-01-26T04:26:25.629Z,9.90
2023-01-26T04:28:51.922Z,9.00
2023-01-26T04:31:18.298Z,10.20
2023-01-26T04:33:44.547Z,10.17
2023-01-26T04:36:11.096Z,10.47
2023-01-26T04:38:37.323Z,9.63
2023-01-26T04:41:03.622Z,10.57
2023-01-26T04:43:29.842Z,10.77
2023-01-26T04:45:59.991Z,10.20
2023-01-26T04:48:27.211Z,10.87
2023-01-26T04:50:57.016Z,11.57
2023-01-26T04:53:23.560Z,10.33
2023-01-26T04:55:49.896Z,10.97
2023-01-26T04:58:16.161Z,10.97
2023-01-26T05:00:42.687Z,11.40
2023-01-26T05:03:10.477Z,11.13
2023-01-26T05:05:37.494Z,11.53
2023-01-26T05:08:06.823Z,10.93
2023-01-26T05:10:33.074Z,10.77
2023-01-26T05:12:59.646Z,11.03
2023-01-26T05:15:25.882Z,10.17
2023-01-26T05:17:52.099Z,11.07
2023-01-26T05:20:18.449Z,10.67
2023-01-26T05:22:44.770Z,11.43
2023-01-26T05:25:11.284Z,10.07
2023-01-26T05:27:37.507Z,10.50
2023-01-26T05:30:03.928Z,10.23
2023-01-26T05:32:31.126Z,10.83
2023-01-26T05:34:57.433Z,10.87
2023-01-26T05:37:27.154Z,10.90
2023-01-26T05:39:53.623Z,10.07
2023-01-26T05:42:19.918Z,10.73
2023-01-26T05:44:46.132Z,10.80
2023-01-26T05:47:12.462Z,10.40
2023-01-26T05:49:41.553Z,9.87
2023-01-26T05:52:09.561Z,9.97
2023-01-26T05:54:35.821Z,10.73
2023-01-26T05:57:02.136Z,10.20
2023-01-26T05:59:28.584Z,9.47
2023-01-26T06:01:55.948Z,10.30
2023-01-26T06:04:22.277Z,10.10
2023-01-26T06:06:48.528Z,9.37
2023-01-26T06:09:14.834Z,9.80
2023-01-26T06:11:41.040Z,9.80
2023-01-26T06:14:07.272Z,9.37
2023-01-26T06:16:33.549Z,10.37
2023-01-26T06:18:59.778Z,8.97
2023-01-26T06:21:26.007Z,9.57
2023-01-26T06:23:52.275Z,9.20
2023-01-26T06:26:18.584Z,9.57
2023-01-26T06:28:44.812Z,8.40
2023-01-26T06:31:11.441Z,9.13
2023-01-26T06:33:38.250Z,8.83
2023-01-26T06:36:05.906Z,8.80
2023-01-26T06:38:32.599Z,9.53
2023-01-26T06:40:59.657Z,9.13
2023-01-26T06:43:25.883Z,8.77
2023-01-26T06:45:52.207Z,8.63
2023-01-26T06:48:18.483Z,10.00
2023-01-26T06:50:44.973Z,8.83
2023-01-26T06:53:38.166Z,8.90
2023-01-26T06:56:04.544Z,8.83
2023-01-26T06:58:30.789Z,8.70
2023-01-26T07:00:57.198Z,9.47
2023-01-26T07:03:23.541Z,8.93
2023-01-26T07:05:50.788Z,9.30
2023-01-26T07:08:17.012Z,10.43
2023-01-26T07:10:43.231Z,8.87
2023-01-26T07:13:09.478Z,9.03
2023-01-26T07:15:35.733Z,8.57
2023-01-26T07:18:02.225Z,8.47
2023-01-26T07:20:28.593Z,7.73
2023-01-26T07:22:55.015Z,7.73
2023-01-26T07:25:21.231Z,7.30
2023-01-26T07:27:47.464Z,7.63
2023-01-26T07:30:14.379Z,7.97
2023-01-26T07:32:40.888Z,7.87
2023-01-26T07:35:07.870Z,7.57
2023-01-26T07:37:34.106Z,8.20
2023-01-26T07:40:00.380Z,7.23
2023-01-26T07:42:26.594Z,7.33
2023-01-26T07:44:52.832Z,8.27
2023-01-26T07:47:19.991Z,8.07
2023-01-26T07:49:47.162Z,7.60
2023-01-26T07:52:13.480Z,8.53
2023-01-26T07:54:39.836Z,8.07
2023-01-26T07:57:09.027Z,7.87
2023-01-26T07:59:35.484Z,7.83
2023-01-26T08:02:02.855Z,8.13
2023-01-26T08:04:29.242Z,8.10
2023-01-26T08:06:55.474Z,8.60
2023-01-26T08:09:21.933Z,8.87
2023-01-26T08:11:48.223Z,8.63
2023-01-26T08:14:14.514Z,8.90
2023-01-26T08:16:40.768Z,8.17
2023-01-26T08:19:07.105Z,7.90
2023-01-26T08:21:33.552Z,8.63
2023-01-26T08:24:01.967Z,8.27
2023-01-26T08:26:29.174Z,8.40
2023-01-26T08:28:55.421Z,8.20
2023-01-26T08:31:21.946Z,7.53
2023-01-26T08:33:50.613Z,8.20
2023-01-26T08:36:17.511Z,8.27
2023-01-26T08:38:43.791Z,8.00
2023-01-26T08:41:10.484Z,8.53
2023-01-26T08:43:36.730Z,8.50
2023-01-26T08:46:03.371Z,8.23
2023-01-26T08:48:31.121Z,9.20
2023-01-26T08:50:58.476Z,9.50
2023-01-26T08:53:25.024Z,9.53
2023-01-26T08:55:51.457Z,9.37
2023-01-26T08:58:17.961Z,9.07
2023-01-26T09:00:44.391Z,8.90
2023-01-26T09:03:10.685Z,8.83
2023-01-26T09:05:37.874Z,8.17
2023-01-26T09:08:05.081Z,8.93
2023-01-26T09:10:31.321Z,9.17
2023-01-26T09:12:58.294Z,8.30
2023-01-26T09:15:24.553Z,8.27
2023-01-26T09:17:50.847Z,8.53
2023-01-26T09:20:17.602Z,8.10
2023-01-26T09:22:43.963Z,7.33
2023-01-26T09:25:10.926Z,7.43
2023-01-26T09:27:37.603Z,7.80
2023-01-26T09:30:04.779Z,7.17
2023-01-26T09:32:31.185Z,8.00
2023-01-26T09:34:57.484Z,6.87
2023-01-26T09:37:23.909Z,7.33
2023-01-26T09:39:50.123Z,6.60
2023-01-26T09:42:31.643Z,6.63
2023-01-26T09:45:00.948Z,7.03
2023-01-26T09:47:33.734Z,6.60
2023-01-26T09:50:08.763Z,6.43
2023-01-26T09:52:42.605Z,6.80
2023-01-26T09:55:15.954Z,7.70
2023-01-26T09:57:42.403Z,7.17
2023-01-26T10:00:16.677Z,6.43
2023-01-26T10:02:48.952Z,7.20
2023-01-26T10:05:21.721Z,7.93
2023-01-26T10:07:48.071Z,8.23
2023-01-26T10:10:17.300Z,8.30
2023-01-26T10:12:43.560Z,8.30
2023-01-26T10:15:33.121Z,8.53
2023-01-26T10:18:05.537Z,8.90
2023-01-26T10:20:33.652Z,8.70
2023-01-26T10:23:20.203Z,9.07
2023-01-26T10:25:47.032Z,8.87
2023-01-26T10:28:18.350Z,9.03
2023-01-26T10:30:46.018Z,9.57
2023-01-26T10:33:18.070Z,9.03
2023-01-26T10:35:44.688Z,9.30
2023-01-26T10:38:29.822Z,9.03
2023-01-26T10:40:56.267Z,8.93
2023-01-26T10:43:24.317Z,9.70
2023-01-26T10:45:50.601Z,9.77
2023-01-26T10:48:20.913Z,9.73
2023-01-26T10:50:47.979Z,10.53
2023-01-26T10:53:19.127Z,9.90
2023-01-26T10:55:58.380Z,10.07
2023-01-26T10:58:43.281Z,10.50
2023-01-26T11:01:12.379Z,9.03
2023-01-26T11:03:39.210Z,9.43
2023-01-26T11:06:07.158Z,9.90
2023-01-26T11:08:34.685Z,9.47
2023-01-26T11:11:02.276Z,9.57
2023-01-26T11:13:28.527Z,9.90
2023-01-26T11:16:03.073Z,9.57
2023-01-26T11:18:48.032Z,10.87
2023-01-26T11:21:17.683Z,10.60
2023-01-26T11:23:47.196Z,10.40
2023-01-26T11:26:23.323Z,10.10
2023-01-26T11:28:55.656Z,10.20
2023-01-26T11:31:33.095Z,10.33
2023-01-26T11:34:05.383Z,10.77
2023-01-26T11:36:42.134Z,10.80
2023-01-26T11:39:46.815Z,11.13
2023-01-26T11:42:38.589Z,10.50
2023-01-26T11:45:19.690Z,10.33
2023-01-26T11:47:52.976Z,10.07
2023-01-26T11:50:24.387Z,9.90
2023-01-26T11:52:59.800Z,10.10
2023-01-26T11:55:49.612Z,9.20
2023-01-26T11:58:34.726Z,9.00
2023-01-26T12:01:02.184Z,11.33
2023-01-26T12:03:33.656Z,8.37
2023-01-26T12:06:05.577Z,7.50
2023-01-26T12:08:38.549Z,8.33
2023-01-26T12:11:23.507Z,8.20
2023-01-26T12:13:56.434Z,7.70
2023-01-26T12:16:33.869Z,8.27
2023-01-26T12:19:10.988Z,8.87
2023-01-26T12:21:38.666Z,8.30
2023-01-26T12:24:05.924Z,8.43
2023-01-26T12:26:33.936Z,9.60
2023-01-26T12:29:09.299Z,9.00
2023-01-26T12:31:43.701Z,8.97
2023-01-26T12:34:12.143Z,9.67
2023-01-26T12:36:53.359Z,8.87
2023-01-26T12:39:31.361Z,9.70
2023-01-26T12:42:14.019Z,10.47
2023-01-26T12:44:46.188Z,10.20
2023-01-26T12:47:16.119Z,9.67
2023-01-26T12:49:45.036Z,8.70
2023-01-26T12:52:32.759Z,9.27
2023-01-26T12:55:02.064Z,8.63
2023-01-26T12:57:35.659Z,8.40
2023-01-26T13:00:22.417Z,8.20
2023-01-26T13:02:50.260Z,6.63
2023-01-26T13:05:24.525Z,6.63
2023-01-26T13:07:50.764Z,5.90
2023-01-26T13:10:20.375Z,7.03
2023-01-26T13:12:47.719Z,7.50
2023-01-26T13:15:15.130Z,6.97
2023-01-26T13:17:47.516Z,6.63
2023-01-26T13:20:27.576Z,7.10
2023-01-26T13:22:54.304Z,7.83
2023-01-26T13:25:29.324Z,7.80
2023-01-26T13:27:57.126Z,7.73
2023-01-26T13:30:23.496Z,7.20
2023-01-26T13:32:49.798Z,7.73
2023-01-26T13:35:21.258Z,7.63
2023-01-26T13:37:58.219Z,8.23
2023-01-26T13:40:32.267Z,6.90
2023-01-26T13:43:26.875Z,7.00
2023-01-26T13:46:03.179Z,6.77
2023-01-26T13:48:46.255Z,7.40
2023-01-26T13:51:13.849Z,7.27
2023-01-26T13:53:41.512Z,7.60
2023-01-26T13:56:20.790Z,8.47
2023-01-26T13:58:47.071Z,8.37
2023-01-26T14:01:13.997Z,8.00
2023-01-26T14:03:40.235Z,8.90
2023-01-26T14:06:11.642Z,8.70
2023-01-26T14:08:38.577Z,8.17
2023-01-26T14:11:14.249Z,8.73
2023-01-26T14:13:41.184Z,9.27
2023-01-26T14:16:07.958Z,9.60
2023-01-26T14:18:34.373Z,9.40
2023-01-26T14:21:02.008Z,10.20
2023-01-26T14:23:29.848Z,9.87
2023-01-26T14:26:01.541Z,10.40
2023-01-26T14:28:35.694Z,10.37
2023-01-26T14:31:04.022Z,11.80
2023-01-26T14:33:31.052Z,12.37
2023-01-26T14:35:58.783Z,12.00
2023-01-26T14:38:28.099Z,11.43
2023-01-26T14:40:58.420Z,11.80
2023-01-26T14:43:25.541Z,11.53
2023-01-26T14:46:00.181Z,11.40
2023-01-26T14:48:29.229Z,11.47
2023-01-26T14:50:55.785Z,10.97
2023-01-26T14:53:23.637Z,11.57
2023-01-26T14:55:51.976Z,11.00
2023-01-26T14:58:29.541Z,10.63
2023-01-26T15:00:58.857Z,11.17
2023-01-26T15:03:30.131Z,10.80
2023-01-26T15:06:15.318Z,11.90
2023-01-26T15:08:42.411Z,10.87
2023-01-26T15:11:27.730Z,11.20
2023-01-26T15:13:55.191Z,11.07
2023-01-26T15:16:23.472Z,11.17
2023-01-26T15:19:08.707Z,11.87
2023-01-26T15:21:39.538Z,11.63
2023-01-26T15:24:06.371Z,11.43
2023-01-26T15:26:34.622Z,12.20
2023-01-26T15:29:02.851Z,11.63
2023-01-26T15:31:31.842Z,11.60
2023-01-26T15:34:03.927Z,11.00
2023-01-26T15:36:30.894Z,12.10
2023-01-26T15:38:58.781Z,12.27
2023-01-26T15:41:25.031Z,11.60
2023-01-26T15:43:51.256Z,11.83
2023-01-26T15:46:17.515Z,11.00
2023-01-26T15:48:43.749Z,11.90
2023-01-26T15:51:13.580Z,12.27
2023-01-26T15:53:40.080Z,14.43
2023-01-26T15:56:06.548Z,14.63
2023-01-26T15:58:34.916Z,14.23
2023-01-26T16:01:01.394Z,14.37
2023-01-26T16:03:30.079Z,15.03
2023-01-26T16:05:56.307Z,13.57
2023-01-26T16:08:22.546Z,13.13
2023-01-26T16:10:48.929Z,13.47
2023-01-26T16:13:20.375Z,13.17
2023-01-26T16:15:51.606Z,12.97
2023-01-26T16:18:18.252Z,12.23
2023-01-26T16:20:45.621Z,11.53
2023-01-26T16:23:19.607Z,12.70
2023-01-26T16:25:46.379Z,13.00
2023-01-26T16:28:12.715Z,12.93
2023-01-26T16:30:39.004Z,14.07
2023-01-26T16:33:05.256Z,13.87
2023-01-26T16:35:31.521Z,13.77
2023-01-26T16:37:57.771Z,14.17
2023-01-26T16:40:24.027Z,12.90
2023-01-26T16:42:51.515Z,12.53
2023-01-26T16:45:22.184Z,12.53
2023-01-26T16:47:49.839Z,12.97
2023-01-26T16:50:16.190Z,13.43
2023-01-26T16:52:42.526Z,11.97
2023-01-26T16:55:12.635Z,12.90
2023-01-26T16:57:41.277Z,12.50
2023-01-26T17:00:10.125Z,12.67
2023-01-26T17:02:36.891Z,11.93
2023-01-26T17:05:03.195Z,13.43
2023-01-26T17:07:29.488Z,13.23
2023-01-26T17:09:55.737Z,11.87
2023-01-26T17:12:22.017Z,12.30
2023-01-26T17:14:48.307Z,12.37
2023-01-26T17:17:14.635Z,11.80
2023-01-26T17:19:40.964Z,13.53
2023-01-26T17:22:07.601Z,12.80
2023-01-26T17:24:33.844Z,11.70
2023-01-26T17:27:00.063Z,11.47
2023-01-26T17:29:26.321Z,11.33
2023-01-26T17:31:52.681Z,11.63
2023-01-26T17:34:21.114Z,11.53
2023-01-26T17:36:47.359Z,11.93
2023-01-26T17:39:14.206Z,12.40
2023-01-26T17:41:40.442Z,13.27
2023-01-26T17:44:06.669Z,12.60
2023-01-26T17:46:32.902Z,12.57
2023-01-26T17:48:59.130Z,12.27
2023-01-26T17:51:25.455Z,13.80
2023-01-26T17:53:51.710Z,12.70
2023-01-26T17:56:18.917Z,13.80
2023-01-26T17:58:49.606Z,12.47
2023-01-26T18:01:15.890Z,12.80
2023-01-26T18:03:42.733Z,15.10
2023-01-26T18:06:09.470Z,14.00
2023-01-26T18:08:36.617Z,14.60
2023-01-26T18:11:03.924Z,15.47
2023-01-26T18:13:30.903Z,15.97
2023-01-26T18:15:57.322Z,15.53
2023-01-26T18:18:24.556Z,15.90
2023-01-26T18:20:50.982Z,15.23
2023-01-26T18:23:17.842Z,16.33
2023-01-26T18:25:44.491Z,16.27
2023-01-26T18:28:11.136Z,15.67
2023-01-26T18:30:37.594Z,14.77
2023-01-26T18:33:03.968Z,13.83
2023-01-26T18:35:30.208Z,13.97
2023-01-26T18:37:56.474Z,12.77
2023-01-26T18:40:23.910Z,12.73
2023-01-26T18:42:53.472Z,13.43
2023-01-26T18:45:19.699Z,13.53
2023-01-26T18:47:45.917Z,14.20
2023-01-26T18:50:12.171Z,13.47
2023-01-26T18:52:38.709Z,12.93
2023-01-26T18:55:05.201Z,14.10
2023-01-26T18:57:31.667Z,13.10
2023-01-26T18:59:57.891Z,11.93
2023-01-26T19:02:24.981Z,12.90
2023-01-26T19:04:53.545Z,12.83
2023-01-26T19:07:19.989Z,13.53
2023-01-26T19:09:46.339Z,14.93
2023-01-26T19:12:12.636Z,13.27
2023-01-26T19:14:39.127Z,14.90
2023-01-26T19:17:05.381Z,13.80
2023-01-26T19:19:31.831Z,12.90
2023-01-26T19:21:58.123Z,13.13
2023-01-26T19:24:24.493Z,15.23
2023-01-26T19:26:50.741Z,14.30
2023-01-26T19:29:17.028Z,12.83
2023-01-26T19:31:43.358Z,12.03
2023-01-26T19:34:13.197Z,12.83
2023-01-26T19:36:39.839Z,12.53
2023-01-26T19:39:06.590Z,13.30
2023-01-26T19:41:33.177Z,13.40
2023-01-26T19:43:59.391Z,13.83
2023-01-26T19:46:25.746Z,13.13
2023-01-26T19:48:52.061Z,13.73
2023-01-26T19:51:19.458Z,13.80
2023-01-26T19:53:46.858Z,14.40
2023-01-26T19:56:13.076Z,13.63
2023-01-26T19:58:39.345Z,13.73
2023-01-26T20:01:06.990Z,14.50
2023-01-26T20:03:33.345Z,12.47
2023-01-26T20:05:59.753Z,13.30
2023-01-26T20:08:26.685Z,13.60
2023-01-26T20:10:53.051Z,13.27
2023-01-26T20:13:19.572Z,14.97
2023-01-26T20:15:46.054Z,13.43
2023-01-26T20:18:12.367Z,13.27
2023-01-26T20:20:39.392Z,12.90
2023-01-26T20:23:07.454Z,13.30
2023-01-26T20:25:34.786Z,13.43
2023-01-26T20:28:02.805Z,12.17
2023-01-26T20:30:29.096Z,12.43
2023-01-26T20:32:55.407Z,11.93
2023-01-26T20:35:21.611Z,11.93
2023-01-26T20:37:47.894Z,11.13
2023-01-26T20:40:14.721Z,12.47
2023-01-26T20:42:41.151Z,12.70
2023-01-26T20:45:07.660Z,12.00
2023-01-26T20:47:36.652Z,11.40
2023-01-26T20:50:02.924Z,11.70
2023-01-26T20:52:29.440Z,11.97
2023-01-26T20:54:55.855Z,12.27
2023-01-26T20:57:22.149Z,11.47
2023-01-26T20:59:48.433Z,11.87
2023-01-26T21:02:16.315Z,11.43
2023-01-26T21:04:42.705Z,11.57
2023-01-26T21:07:09.291Z,11.30
2023-01-26T21:09:36.073Z,11.87
2023-01-26T21:12:02.451Z,11.43
2023-01-26T21:14:28.886Z,10.43
2023-01-26T21:16:55.673Z,12.57
2023-01-26T21:19:21.916Z,12.90
2023-01-26T21:21:48.198Z,11.37
2023-01-26T21:24:15.694Z,12.20
2023-01-26T21:26:41.995Z,11.53
2023-01-26T21:29:11.065Z,11.40
2023-01-26T21:31:37.355Z,11.10
2023-01-26T21:34:03.631Z,11.80
2023-01-26T21:36:31.142Z,11.67
2023-01-26T21:38:58.501Z,11.77
2023-01-26T21:41:44.296Z,12.37
2023-01-26T21:44:11.662Z,12.33
2023-01-26T21:46:38.006Z,11.50
2023-01-26T21:49:04.667Z,13.03
2023-01-26T21:51:49.712Z,12.40
2023-01-26T21:54:16.416Z,12.80
2023-01-26T21:56:42.874Z,13.10
2023-01-26T21:59:10.487Z,14.13
2023-01-26T22:01:40.434Z,13.57
2023-01-26T22:04:08.207Z,13.40
2023-01-26T22:06:35.116Z,12.87
2023-01-26T22:09:01.372Z,13.53
2023-01-26T22:11:27.637Z,13.30
2023-01-26T22:13:54.252Z,12.47
2023-01-26T22:16:20.712Z,13.10
2023-01-26T22:18:48.200Z,12.43
2023-01-26T22:21:14.753Z,13.60
2023-01-26T22:23:41.494Z,13.70
2023-01-26T22:26:09.045Z,13.60
2023-01-26T22:28:35.463Z,12.50
2023-01-26T22:31:03.391Z,12.37
2023-01-26T22:33:29.832Z,12.07
2023-01-26T22:36:00.101Z,12.63
2023-01-26T22:38:26.352Z,12.47
2023-01-26T22:40:52.594Z,13.20
2023-01-26T22:43:18.869Z,13.83
2023-01-26T22:45:45.089Z,14.07
2023-01-26T22:48:11.312Z,13.13
2023-01-26T22:50:37.520Z,14.20
2023-01-26T22:53:03.765Z,14.13
2023-01-26T22:55:30.028Z,12.30
2023-01-26T22:57:56.246Z,12.13
2023-01-26T23:00:23.677Z,13.13
2023-01-26T23:02:50.253Z,13.50
2023-01-26T23:05:16.993Z,12.47
2023-01-26T23:07:43.233Z,12.50
2023-01-26T23:10:09.849Z,12.97
2023-01-26T23:12:36.582Z,12.83
2023-01-26T23:15:02.851Z,12.10
2023-01-26T23:17:29.055Z,13.40
2023-01-26T23:19:55.279Z,12.90
2023-01-26T23:22:21.682Z,11.37
2023-01-26T23:25:07.890Z,12.37
2023-01-26T23:27:34.107Z,11.53
2023-01-26T23:30:03.121Z,11.43
2023-01-26T23:32:29.776Z,11.87
2023-01-26T23:34:56.009Z,11.07
2023-01-26T23:37:22.320Z,9.97
2023-01-26T23:39:48.535Z,10.53
2023-01-26T23:42:15.913Z,10.93
2023-01-26T23:44:42.201Z,10.43
2023-01-26T23:47:08.462Z,10.67
2023-01-26T23:49:34.800Z,11.60
2023-01-26T23:52:01.085Z,11.00
2023-01-26T23:54:27.355Z,11.60
2023-01-26T23:56:53.571Z,10.70
2023-01-26T23:59:19.835Z,10.57
